Terminal Aerodrome Forecast
Issued by NWS Albany, NY

Home | Current Version | Previous Version | Text Only | Print | Product List | Glossary On
Versions: 1 2 3 4 5 6 7 8 9 10 11 12 13 14 15 16 17 18 19 20 21 22
000
FTUS41 KALY 171100 RRA
TAFALB
TAF
KALB 171158Z 1712/1812 VRB03KT P6SM SCT060
     FM171400 24005KT P6SM FEW025 SCT050
     FM171600 27007KT P6SM FEW060
     FM172300 VRB03KT P6SM SKC
     FM181000 00000KT P6SM BKN200=

USA.gov is the U.S. government's official web portal to all federal, state and local government web resources and services.